Time;durP1;ratioP1;P1;durP2;ratioP2;P2;SDS_P1;SDS_P2;PMS_P1;PMS_P2;Temp;Humidity;BMP_temperature;BMP_pressure;BME280_temperature;BME280_humidity;BME280_pressure;Samples;Min_cycle;Max_cycle;Signal;HPM_P1;HPM_P2
2021/12/04 00:00:27;;;;;;;45.75;26.92;;;4.90;99.90;;;;;;5023061;28;20076;-68
2021/12/04 00:02:53;;;;;;;48.70;26.70;;;4.90;99.90;;;;;;5037634;28;20086;-68
2021/12/04 00:05:21;;;;;;;49.47;27.38;;;4.90;99.90;;;;;;5021591;28;20049;-68
2021/12/04 00:07:47;;;;;;;48.00;27.83;;;4.90;99.90;;;;;;5019720;28;20056;-68
2021/12/04 00:10:17;;;;;;;47.88;27.23;;;4.90;99.90;;;;;;5021424;28;20065;-68
2021/12/04 00:12:43;;;;;;;45.38;27.52;;;4.90;99.90;;;;;;5020467;28;20478;-68
2021/12/04 00:15:09;;;;;;;47.95;26.30;;;4.90;99.90;;;;;;5021138;28;20053;-68
2021/12/04 00:17:35;;;;;;;48.30;26.85;;;4.90;99.90;;;;;;5022446;28;20052;-68
2021/12/04 00:20:03;;;;;;;50.92;26.60;;;4.90;99.90;;;;;;5022758;28;20152;-68
2021/12/04 00:22:29;;;;;;;48.85;28.05;;;4.90;99.90;;;;;;5022761;28;20053;-68
2021/12/04 00:24:54;;;;;;;48.00;27.40;;;4.90;99.90;;;;;;5022342;28;20065;-68
2021/12/04 00:27:20;;;;;;;54.97;28.87;;;4.90;99.90;;;;;;5022073;28;20038;-68
2021/12/04 00:29:46;;;;;;;55.22;28.38;;;4.90;99.90;;;;;;5022776;28;20109;-68
2021/12/04 00:32:14;;;;;;;61.30;29.53;;;4.80;99.90;;;;;;5021134;28;20053;-68
2021/12/04 00:34:45;;;;;;;52.30;27.20;;;4.80;99.90;;;;;;5020846;28;20045;-68
2021/12/04 00:37:35;;;;;;;56.88;29.85;;;4.90;99.90;;;;;;5021255;28;20400;-68
2021/12/04 00:51:03;;;;;;;66.00;30.60;;;4.90;99.90;;;;;;5023027;28;20075;-68
2021/12/04 00:53:28;;;;;;;68.43;30.77;;;4.80;99.90;;;;;;5022193;28;20050;-68
2021/12/04 00:55:54;;;;;;;65.43;29.07;;;4.90;99.90;;;;;;5022365;28;20042;-68
2021/12/04 00:58:20;;;;;;;61.00;29.10;;;4.90;99.90;;;;;;5021774;28;20141;-68
2021/12/04 01:00:45;;;;;;;68.07;29.80;;;4.80;99.90;;;;;;5012936;28;20050;-68
2021/12/04 01:03:11;;;;;;;64.60;30.30;;;4.80;99.90;;;;;;5016409;28;20050;-68
2021/12/04 01:05:37;;;;;;;65.10;29.73;;;4.80;99.90;;;;;;5020374;28;20293;-68
2021/12/04 01:08:03;;;;;;;72.32;30.92;;;4.90;99.90;;;;;;4984502;28;20086;-68
2021/12/04 01:10:28;;;;;;;71.03;30.75;;;4.80;99.90;;;;;;5014083;28;20044;-68
2021/12/04 01:13:00;;;;;;;65.00;29.57;;;4.90;99.90;;;;;;5016306;28;20046;-68
2021/12/04 01:15:26;;;;;;;70.95;29.45;;;4.80;99.90;;;;;;5019690;28;20384;-68
2021/12/04 01:17:51;;;;;;;66.15;30.88;;;4.90;99.90;;;;;;5012690;28;20054;-68
2021/12/04 01:20:17;;;;;;;72.73;29.90;;;4.90;99.90;;;;;;5020361;28;20049;-68
2021/12/04 01:22:43;;;;;;;73.20;30.20;;;4.90;99.90;;;;;;5033720;28;20050;-69
2021/12/04 01:25:09;;;;;;;75.53;30.37;;;4.90;99.90;;;;;;5020320;28;20188;-68
2021/12/04 01:27:37;;;;;;;75.13;30.27;;;4.80;99.90;;;;;;5002783;28;20195;-68
2021/12/04 01:30:05;;;;;;;76.78;32.40;;;4.90;99.90;;;;;;5020507;28;20054;-68
2021/12/04 01:32:31;;;;;;;83.78;31.13;;;4.80;99.90;;;;;;5016502;28;20843;-68
2021/12/04 01:34:57;;;;;;;85.37;32.17;;;4.80;99.90;;;;;;5001264;28;20046;-68
2021/12/04 01:37:22;;;;;;;75.22;29.35;;;4.80;99.90;;;;;;5019629;28;20304;-68
2021/12/04 01:39:48;;;;;;;79.82;32.10;;;4.80;99.90;;;;;;5024258;28;20136;-68
2021/12/04 01:42:18;;;;;;;76.00;30.80;;;4.90;99.90;;;;;;5024964;28;20533;-68
2021/12/04 01:44:46;;;;;;;81.15;29.58;;;4.80;99.90;;;;;;5023412;28;20078;-68
2021/12/04 01:47:16;;;;;;;78.05;30.33;;;4.80;99.90;;;;;;5025211;28;20084;-68
2021/12/04 01:49:43;;;;;;;77.72;31.60;;;4.90;99.90;;;;;;5024050;28;20041;-68
2021/12/04 01:52:08;;;;;;;91.13;32.63;;;4.90;99.90;;;;;;5023791;28;20448;-68
2021/12/04 01:54:36;;;;;;;82.15;31.35;;;4.80;99.90;;;;;;5025232;28;20030;-68
2021/12/04 01:57:05;;;;;;;84.10;31.83;;;4.90;99.90;;;;;;5024864;28;20084;-67
2021/12/04 01:59:31;;;;;;;81.20;30.08;;;4.90;99.90;;;;;;5022573;28;20134;-68
2021/12/04 02:01:57;;;;;;;79.28;30.95;;;4.90;99.90;;;;;;5023648;28;20046;-68
2021/12/04 02:04:23;;;;;;;88.30;31.13;;;4.80;99.90;;;;;;5023393;28;20061;-68
2021/12/04 02:06:49;;;;;;;72.65;30.40;;;4.90;99.90;;;;;;5013435;28;20051;-68
2021/12/04 02:09:15;;;;;;;74.82;30.45;;;4.80;99.90;;;;;;5023531;28;20058;-68
2021/12/04 02:11:41;;;;;;;84.17;31.40;;;4.90;99.90;;;;;;5023333;28;20123;-68
2021/12/04 02:14:07;;;;;;;81.37;30.80;;;4.90;99.90;;;;;;5019772;28;20149;-68
2021/12/04 02:16:32;;;;;;;87.68;32.22;;;4.90;99.90;;;;;;5009861;28;20089;-68
2021/12/04 02:18:59;;;;;;;89.73;32.80;;;4.90;99.90;;;;;;5022680;28;20065;-68
2021/12/04 02:21:26;;;;;;;78.65;30.08;;;4.90;99.90;;;;;;5024659;28;20183;-68
2021/12/04 02:23:52;;;;;;;81.30;30.15;;;4.90;99.90;;;;;;5022803;28;20108;-68
2021/12/04 02:26:19;;;;;;;86.47;30.55;;;4.90;99.90;;;;;;5037303;28;20061;-68
2021/12/04 02:28:46;;;;;;;89.30;31.67;;;4.90;99.90;;;;;;5018585;28;20117;-68
2021/12/04 02:31:12;;;;;;;92.32;31.80;;;4.90;99.90;;;;;;5023099;28;20084;-68
2021/12/04 02:33:38;;;;;;;82.78;30.65;;;4.90;99.90;;;;;;5022581;28;20037;-68
2021/12/04 02:36:06;;;;;;;82.25;31.17;;;4.80;99.90;;;;;;5011515;28;20668;-68
2021/12/04 02:38:33;;;;;;;79.53;29.05;;;4.90;99.90;;;;;;5022577;28;20034;-68
2021/12/04 02:41:00;;;;;;;99.65;31.10;;;4.80;99.90;;;;;;5024647;28;20523;-68
2021/12/04 02:43:27;;;;;;;84.15;29.38;;;4.90;99.90;;;;;;5012281;28;20061;-68
2021/12/04 02:45:53;;;;;;;98.10;30.92;;;4.90;99.90;;;;;;5005990;28;20050;-68
2021/12/04 02:48:19;;;;;;;87.20;29.73;;;4.90;99.90;;;;;;5021070;28;20065;-68
2021/12/04 02:50:46;;;;;;;85.90;31.02;;;4.90;99.90;;;;;;5023837;28;20041;-68
2021/12/04 02:53:12;;;;;;;90.70;29.15;;;4.90;99.90;;;;;;5022747;28;20060;-68
2021/12/04 02:55:38;;;;;;;89.15;29.65;;;4.80;99.90;;;;;;5021222;28;20129;-68
2021/12/04 02:58:04;;;;;;;84.95;28.10;;;4.90;99.90;;;;;;5023588;28;20060;-67
2021/12/04 03:00:30;;;;;;;84.57;29.75;;;4.90;99.90;;;;;;5022474;28;20114;-68
2021/12/04 03:02:56;;;;;;;110.93;30.95;;;4.90;99.90;;;;;;5022649;28;20092;-68
2021/12/04 03:05:25;;;;;;;87.88;28.67;;;4.90;99.90;;;;;;5024118;28;20060;-68
2021/12/04 03:07:52;;;;;;;88.55;29.63;;;4.90;99.90;;;;;;5038855;28;20053;-68
2021/12/04 03:10:19;;;;;;;93.55;28.48;;;4.90;99.90;;;;;;5038584;28;20485;-68
2021/12/04 03:12:45;;;;;;;101.15;30.40;;;4.80;99.90;;;;;;5022222;28;20104;-68
2021/12/04 03:15:11;;;;;;;101.03;31.35;;;4.80;99.90;;;;;;5019927;28;20053;-68
2021/12/04 03:17:37;;;;;;;92.22;30.65;;;4.90;99.90;;;;;;5021975;28;20057;-68
2021/12/04 03:20:04;;;;;;;81.67;28.83;;;4.90;99.90;;;;;;5022347;28;20130;-68
2021/12/04 03:22:30;;;;;;;93.93;29.95;;;4.80;99.90;;;;;;5007390;28;20073;-68
2021/12/04 03:24:58;;;;;;;91.25;29.95;;;4.80;99.90;;;;;;5008791;28;20455;-68
2021/12/04 03:27:25;;;;;;;102.07;31.15;;;4.80;99.90;;;;;;5023055;28;20044;-68
2021/12/04 03:30:20;;;;;;;92.28;31.00;;;4.80;99.90;;;;;;5006151;28;20058;-68
2021/12/04 03:35:16;;;;;;;83.18;29.17;;;4.90;99.90;;;;;;5024354;28;20057;-68
2021/12/04 03:40:57;;;;;;;80.32;28.05;;;4.90;99.90;;;;;;5023092;28;20117;-68
2021/12/04 03:43:23;;;;;;;67.75;25.88;;;4.90;99.90;;;;;;5021162;28;20042;-68
2021/12/04 03:45:54;;;;;;;62.53;24.80;;;4.80;99.90;;;;;;5021870;28;20088;-68
2021/12/04 03:48:54;;;;;;;65.53;26.10;;;4.80;99.90;;;;;;5020277;28;20076;-67
2021/12/04 03:51:12;;;;;;;60.08;24.52;;;4.80;99.90;;;;;;5010118;28;20571;-68
2021/12/04 03:53:43;;;;;;;59.67;24.20;;;4.80;99.90;;;;;;5023564;28;20041;-69
2021/12/04 03:56:10;;;;;;;58.13;23.42;;;4.80;99.90;;;;;;5022804;28;20117;-68
2021/12/04 03:58:36;;;;;;;48.13;22.80;;;4.80;99.90;;;;;;5022946;28;20060;-67
2021/12/04 04:01:02;;;;;;;60.33;22.92;;;4.80;99.90;;;;;;5020328;28;20105;-68
2021/12/04 04:03:28;;;;;;;50.67;21.57;;;4.80;99.90;;;;;;5019915;28;20097;-68
2021/12/04 04:05:54;;;;;;;50.67;23.27;;;4.80;99.90;;;;;;5022630;28;20102;-68
2021/12/04 04:08:21;;;;;;;;;;;4.80;99.90;;;;;;5023255;28;20555;-68
2021/12/04 04:10:49;;;;;;;55.42;21.95;;;4.80;99.90;;;;;;5021661;28;20068;-68
2021/12/04 04:13:15;;;;;;;46.38;21.25;;;4.80;99.90;;;;;;5022330;28;20109;-68
2021/12/04 04:15:41;;;;;;;53.72;22.38;;;4.80;99.90;;;;;;5017219;28;20169;-68
2021/12/04 04:18:07;;;;;;;52.58;22.30;;;4.80;99.90;;;;;;5007070;28;20074;-68
2021/12/04 04:20:33;;;;;;;44.15;21.40;;;4.80;99.90;;;;;;5021577;28;20054;-67
2021/12/04 04:22:59;;;;;;;44.88;20.67;;;4.80;99.90;;;;;;5021123;28;20053;-68
2021/12/04 04:25:24;;;;;;;61.33;22.60;;;4.80;99.90;;;;;;5020961;28;20069;-68
2021/12/04 04:27:50;;;;;;;44.87;20.77;;;4.80;99.90;;;;;;5020937;28;20061;-68
2021/12/04 04:30:19;;;;;;;55.78;21.30;;;4.80;99.90;;;;;;5022644;28;20411;-68
2021/12/04 04:32:48;;;;;;;51.28;21.50;;;4.80;99.90;;;;;;5021175;28;20081;-68
2021/12/04 04:35:20;;;;;;;43.90;19.80;;;4.80;99.90;;;;;;5021130;28;20042;-68
2021/12/04 05:15:24;;;;;;;45.92;19.80;;;4.70;99.90;;;;;;5023290;28;20090;-67
2021/12/04 05:20:37;;;;;;;43.93;18.33;;;4.70;99.90;;;;;;5024451;28;20045;-67
2021/12/04 05:23:03;;;;;;;49.13;19.90;;;4.70;99.90;;;;;;5016781;28;20105;-67
2021/12/04 05:25:30;;;;;;;51.53;20.00;;;4.70;99.90;;;;;;5024198;28;20128;-68
2021/12/04 05:27:56;;;;;;;48.65;19.25;;;4.70;99.90;;;;;;5035844;28;20050;-67
2021/12/04 05:30:22;;;;;;;48.45;19.02;;;4.70;99.90;;;;;;5005016;28;20081;-67
2021/12/04 05:32:48;;;;;;;45.30;19.55;;;4.70;99.90;;;;;;5012216;28;20038;-67
2021/12/04 05:35:14;;;;;;;48.23;18.73;;;4.70;99.90;;;;;;5024241;28;20493;-67
2021/12/04 05:37:39;;;;;;;41.53;18.57;;;4.70;99.90;;;;;;5024160;28;20289;-67
2021/12/04 05:40:10;;;;;;;49.33;18.73;;;4.70;99.90;;;;;;5024284;28;20493;-67
2021/12/04 05:42:36;;;;;;;39.15;18.15;;;4.70;99.90;;;;;;5023334;28;20041;-67
2021/12/04 05:45:02;;;;;;;38.03;16.70;;;4.70;99.90;;;;;;5025611;28;20050;-67
2021/12/04 05:47:44;;;;;;;44.03;18.33;;;4.70;99.90;;;;;;5040221;28;20049;-67
2021/12/04 05:50:38;;;;;;;35.22;16.92;;;4.70;99.90;;;;;;5025686;28;20125;-67
2021/12/04 05:53:17;;;;;;;36.92;17.95;;;4.70;99.90;;;;;;5023735;28;20108;-67
2021/12/04 05:55:52;;;;;;;38.63;17.83;;;4.70;99.90;;;;;;5025648;28;20061;-67
2021/12/04 05:58:30;;;;;;;38.83;18.00;;;4.60;99.90;;;;;;5022789;28;20041;-68
2021/12/04 06:00:57;;;;;;;38.88;17.80;;;4.60;99.90;;;;;;5004435;28;20068;-67
2021/12/04 06:03:24;;;;;;;36.42;18.92;;;4.60;99.90;;;;;;5004624;28;20062;-67
2021/12/04 06:05:50;;;;;;;39.20;17.67;;;4.60;99.90;;;;;;5025144;28;20061;-67
2021/12/04 06:08:17;;;;;;;41.22;18.73;;;4.60;99.90;;;;;;5024949;28;20084;-67
2021/12/04 06:10:42;;;;;;;;;;;4.60;99.90;;;;;;5025514;28;20176;-67
2021/12/04 06:13:09;;;;;;;37.45;16.63;;;4.50;99.90;;;;;;5023223;28;20390;-68
2021/12/04 06:15:34;;;;;;;32.38;17.17;;;4.60;99.90;;;;;;5024470;28;20042;-67
2021/12/04 06:18:00;;;;;;;43.85;17.80;;;4.50;99.90;;;;;;5018047;28;20077;-67
2021/12/04 06:23:13;;;;;;;45.53;17.73;;;4.50;99.90;;;;;;5005380;28;20050;-67
2021/12/04 06:25:39;;;;;;;49.72;19.92;;;4.50;99.90;;;;;;5019170;28;20321;-67
2021/12/04 06:28:05;;;;;;;35.60;17.67;;;4.50;99.90;;;;;;5023840;28;20045;-67
2021/12/04 06:30:35;;;;;;;36.77;18.67;;;4.50;99.90;;;;;;5024237;28;20078;-67
2021/12/04 06:33:03;;;;;;;42.58;18.65;;;4.60;99.90;;;;;;5022637;28;20356;-66
2021/12/04 06:35:30;;;;;;;39.47;18.60;;;4.60;99.90;;;;;;5021206;28;20053;-67
2021/12/04 06:37:55;;;;;;;36.20;17.85;;;4.60;99.90;;;;;;5023162;28;20061;-67
2021/12/04 06:40:26;;;;;;;38.17;18.73;;;4.60;99.90;;;;;;5024173;28;20161;-66
2021/12/04 06:42:52;;;;;;;45.10;19.73;;;4.70;99.90;;;;;;5011690;28;20081;-66
2021/12/04 06:45:17;;;;;;;38.13;18.23;;;4.70;99.90;;;;;;5003339;28;20073;-64
2021/12/04 06:47:52;;;;;;;43.47;17.93;;;4.60;99.90;;;;;;5021959;28;20046;-59
2021/12/04 06:50:27;;;;;;;36.70;18.58;;;4.70;99.90;;;;;;5024343;28;20050;-65
2021/12/04 06:52:54;;;;;;;37.13;17.38;;;4.70;99.90;;;;;;5022728;28;20046;-66
2021/12/04 06:55:26;;;;;;;35.05;17.08;;;4.70;99.90;;;;;;5005376;28;20109;-67
2021/12/04 06:57:52;;;;;;;39.50;18.13;;;4.70;99.90;;;;;;5021631;28;20056;-64
2021/12/04 07:00:19;;;;;;;39.13;17.00;;;4.70;99.90;;;;;;5023608;28;20129;-66
2021/12/04 07:02:44;;;;;;;35.42;17.63;;;4.70;99.90;;;;;;5023034;28;20042;-67
2021/12/04 07:05:10;;;;;;;38.43;18.70;;;4.70;99.90;;;;;;5022303;28;20072;-67
2021/12/04 07:07:36;;;;;;;40.90;18.23;;;4.70;99.90;;;;;;5023270;28;20772;-67
2021/12/04 07:10:03;;;;;;;42.23;17.50;;;4.70;99.90;;;;;;5020804;28;20164;-69
2021/12/04 07:12:28;;;;;;;38.97;17.67;;;4.70;99.90;;;;;;5020362;28;20731;-67
2021/12/04 07:14:54;;;;;;;32.50;16.70;;;4.70;99.90;;;;;;5021159;28;20082;-68
2021/12/04 07:17:20;;;;;;;38.93;16.83;;;4.70;99.90;;;;;;5017685;28;20038;-68
2021/12/04 07:19:45;;;;;;;39.95;17.05;;;4.70;99.90;;;;;;5020950;28;20076;-59
2021/12/04 07:22:12;;;;;;;41.83;17.73;;;4.70;99.90;;;;;;5015674;28;20069;-68
2021/12/04 07:24:38;;;;;;;39.03;16.83;;;4.70;99.90;;;;;;5021105;28;20061;-68
2021/12/04 07:27:05;;;;;;;44.72;19.15;;;4.70;99.90;;;;;;5021144;28;20037;-66
2021/12/04 07:29:31;;;;;;;49.20;19.10;;;4.70;99.90;;;;;;5022662;28;20125;-68
2021/12/04 07:31:57;;;;;;;56.35;20.30;;;4.70;99.90;;;;;;5000787;28;20042;-66
2021/12/04 07:34:23;;;;;;;56.85;19.33;;;4.70;99.90;;;;;;5016103;28;20470;-66
2021/12/04 07:36:49;;;;;;;56.30;20.15;;;4.70;99.90;;;;;;5008542;28;20096;-66
2021/12/04 07:39:15;;;;;;;44.58;19.02;;;4.70;99.90;;;;;;5022250;28;20068;-66
2021/12/04 07:41:42;;;;;;;51.45;20.27;;;4.70;99.90;;;;;;5037954;28;20104;-66
2021/12/04 07:44:10;;;;;;;48.25;18.40;;;4.70;99.90;;;;;;5021913;28;20077;-65
2021/12/04 07:46:38;;;;;;;50.70;18.40;;;4.70;99.90;;;;;;5023285;28;20098;-65
2021/12/04 07:49:04;;;;;;;53.17;19.52;;;4.70;99.90;;;;;;4988455;28;20085;-64
2021/12/04 07:51:30;;;;;;;51.03;19.95;;;4.70;99.90;;;;;;5023101;28;20080;-65
2021/12/04 07:53:55;;;;;;;48.78;19.73;;;4.70;99.90;;;;;;5021125;28;20103;-65
2021/12/04 07:56:21;;;;;;;63.67;19.70;;;4.70;99.90;;;;;;5020344;28;20136;-67
2021/12/04 07:58:47;;;;;;;47.80;17.70;;;4.70;99.90;;;;;;5021321;28;20054;-64
2021/12/04 08:01:13;;;;;;;47.03;18.43;;;4.70;99.90;;;;;;5021172;28;20037;-64
2021/12/04 08:03:39;;;;;;;50.03;19.13;;;4.70;99.90;;;;;;5020934;28;20046;-68
2021/12/04 08:06:05;;;;;;;40.78;18.02;;;4.70;99.90;;;;;;5016469;28;20046;-66
2021/12/04 08:08:31;;;;;;;50.47;19.55;;;4.70;99.90;;;;;;5022422;28;20074;-65
2021/12/04 08:10:57;;;;;;;52.15;19.50;;;4.70;99.90;;;;;;5022930;28;20152;-64
2021/12/04 08:13:23;;;;;;;57.67;20.98;;;4.70;99.90;;;;;;5021171;28;20080;-65
2021/12/04 08:15:49;;;;;;;50.80;19.47;;;4.70;99.90;;;;;;5022847;28;20124;-63
2021/12/04 08:18:15;;;;;;;57.78;20.45;;;4.70;99.90;;;;;;5010641;28;20046;-64
2021/12/04 08:20:40;;;;;;;58.50;21.02;;;4.70;99.90;;;;;;5021135;28;20044;-58
2021/12/04 08:23:07;;;;;;;51.43;18.73;;;4.70;99.90;;;;;;5021537;28;20045;-63
2021/12/04 08:25:33;;;;;;;56.08;19.90;;;4.70;99.90;;;;;;5020919;28;20381;-63
2021/12/04 08:28:00;;;;;;;47.85;19.90;;;4.70;99.90;;;;;;5022376;28;20408;-63
2021/12/04 08:30:29;;;;;;;46.92;18.80;;;4.70;99.90;;;;;;5022688;28;20041;-63
2021/12/04 08:32:56;;;;;;;55.85;19.60;;;4.70;99.90;;;;;;5020970;28;20485;-63
2021/12/04 08:35:25;;;;;;;52.33;19.63;;;4.70;99.90;;;;;;5022681;28;20088;-63
2021/12/04 08:37:54;;;;;;;51.33;18.00;;;4.70;99.90;;;;;;5022182;28;20126;-63
2021/12/04 08:40:20;;;;;;;40.50;17.90;;;4.70;99.90;;;;;;5021104;28;20046;-63
2021/12/04 08:42:47;;;;;;;40.17;17.08;;;4.70;99.90;;;;;;5022277;28;20041;-63
2021/12/04 08:45:14;;;;;;;39.17;17.65;;;4.70;99.90;;;;;;5022809;28;20048;-63
2021/12/04 08:47:40;;;;;;;41.35;16.98;;;4.70;99.90;;;;;;5020695;28;20108;-63
2021/12/04 08:50:10;;;;;;;43.08;18.48;;;4.70;99.90;;;;;;5025577;28;20049;-64
2021/12/04 08:52:37;;;;;;;36.78;17.20;;;4.70;99.90;;;;;;5025366;28;20046;-64
2021/12/04 08:55:04;;;;;;;40.53;17.45;;;4.70;99.90;;;;;;5026728;28;20097;-63
2021/12/04 08:57:29;;;;;;;35.00;16.90;;;4.70;99.90;;;;;;5026378;28;20053;-64
2021/12/04 08:59:55;;;;;;;34.50;16.07;;;4.70;99.90;;;;;;5026441;28;20098;-63
2021/12/04 09:02:21;;;;;;;35.90;16.20;;;4.70;99.90;;;;;;5024721;28;20189;-61
2021/12/04 09:04:47;;;;;;;37.78;16.15;;;4.80;99.90;;;;;;5024377;28;20045;-63
2021/12/04 09:07:13;;;;;;;33.65;16.65;;;4.80;99.90;;;;;;5024385;28;20412;-64
2021/12/04 09:09:39;;;;;;;33.22;15.85;;;4.80;99.90;;;;;;5024655;28;20069;-63
2021/12/04 09:12:08;;;;;;;29.88;16.48;;;4.70;99.90;;;;;;5024236;28;20037;-62
2021/12/04 09:14:36;;;;;;;33.70;15.88;;;4.70;99.90;;;;;;5024404;28;20100;-62
2021/12/04 09:17:05;;;;;;;33.30;15.18;;;4.80;99.90;;;;;;5025643;28;20473;-63
2021/12/04 09:19:31;;;;;;;27.75;14.80;;;4.80;99.90;;;;;;5026113;28;20114;-72
2021/12/04 09:21:58;;;;;;;28.45;15.13;;;4.90;99.90;;;;;;5024715;28;20038;-63
2021/12/04 09:24:36;;;;;;;32.08;14.82;;;4.80;99.90;;;;;;5024382;28;20193;-64
2021/12/04 09:27:12;;;;;;;22.98;12.93;;;4.80;99.90;;;;;;5025513;28;20081;-66
2021/12/04 09:59:41;;;;;;;18.23;11.38;;;5.00;99.90;;;;;;5025310;28;20116;-65
2021/12/04 10:05:06;;;;;;;19.17;11.90;;;5.00;99.90;;;;;;5024363;28;20100;-65
2021/12/04 10:13:43;;;;;;;;;;;5.10;99.90;;;;;;5023727;28;20053;-64
2021/12/04 10:19:17;;;;;;;18.60;11.95;;;5.10;99.90;;;;;;5024465;28;20455;-64
2021/12/04 10:21:58;;;;;;;19.05;11.85;;;5.10;99.90;;;;;;5023247;28;20463;-64
2021/12/04 10:33:17;;;;;;;17.75;11.48;;;5.20;99.90;;;;;;4966861;28;20043;-64
2021/12/04 10:35:44;;;;;;;17.77;12.65;;;5.30;99.90;;;;;;4982996;28;20109;-66
2021/12/04 10:38:21;;;;;;;18.63;11.95;;;5.30;99.90;;;;;;4964823;28;20531;-65
2021/12/04 10:40:49;;;;;;;19.55;13.18;;;5.30;99.90;;;;;;4972386;28;20049;-64
2021/12/04 10:43:28;;;;;;;20.55;12.15;;;5.30;99.90;;;;;;4947723;28;20039;-66
2021/12/04 10:45:59;;;;;;;19.83;12.32;;;5.30;99.90;;;;;;4982833;28;20081;-65
2021/12/04 10:48:29;;;;;;;19.85;12.73;;;5.30;99.90;;;;;;4987046;28;20043;-65
2021/12/04 10:51:08;;;;;;;19.52;12.52;;;5.40;99.90;;;;;;4983039;28;20059;-64
2021/12/04 10:53:38;;;;;;;19.52;12.30;;;5.40;99.90;;;;;;4966609;28;20065;-65
2021/12/04 11:04:48;;;;;;;18.83;11.52;;;5.50;99.90;;;;;;4995886;28;20114;-65
2021/12/04 11:07:37;;;;;;;15.65;11.05;;;5.50;99.90;;;;;;5016586;28;20064;-66
2021/12/04 11:18:53;;;;;;;18.50;12.02;;;5.50;99.90;;;;;;5020205;28;20114;-66
2021/12/04 11:42:36;;;;;;;16.35;10.77;;;5.60;99.90;;;;;;5021552;28;20046;-66
2021/12/04 11:45:26;;;;;;;16.42;11.38;;;5.50;99.90;;;;;;5019126;28;20054;-65
2021/12/04 11:48:03;;;;;;;15.45;10.40;;;5.50;99.90;;;;;;5037018;28;20058;-64
2021/12/04 11:50:35;;;;;;;15.80;10.55;;;5.60;99.90;;;;;;5018093;28;20121;-65
2021/12/04 11:53:20;;;;;;;16.30;10.18;;;5.60;99.90;;;;;;5017296;28;20058;-64
2021/12/04 11:55:49;;;;;;;16.10;10.68;;;5.60;99.90;;;;;;5019608;28;20064;-65
2021/12/04 11:58:24;;;;;;;14.85;10.13;;;5.60;99.90;;;;;;5020574;28;20065;-66
2021/12/04 12:00:54;;;;;;;15.10;10.93;;;5.70;99.90;;;;;;5019272;28;20049;-64
2021/12/04 12:03:28;;;;;;;15.63;10.77;;;5.70;99.90;;;;;;5019000;28;20042;-64
2021/12/04 12:05:57;;;;;;;15.38;11.10;;;5.70;99.90;;;;;;5020851;28;20056;-65
2021/12/04 12:08:28;;;;;;;14.60;10.80;;;5.70;99.90;;;;;;5021249;28;20068;-74
2021/12/04 12:11:00;;;;;;;16.88;11.13;;;5.60;99.90;;;;;;5018576;28;20049;-79
2021/12/04 12:13:30;;;;;;;17.48;11.40;;;5.70;99.90;;;;;;5019388;28;20057;-61
2021/12/04 12:16:10;;;;;;;17.40;10.95;;;5.60;99.90;;;;;;5022004;28;20046;-66
2021/12/04 12:19:09;;;;;;;16.52;11.40;;;5.60;99.90;;;;;;5020860;28;20037;-67
2021/12/04 12:22:17;;;;;;;17.00;11.18;;;5.60;99.90;;;;;;5002868;28;20460;-70
2021/12/04 12:27:31;;;;;;;19.38;11.90;;;5.60;99.90;;;;;;5021635;28;20057;-71
2021/12/04 12:38:29;;;;;;;23.58;13.38;;;5.60;99.90;;;;;;5018180;28;20041;-73
2021/12/04 12:41:20;;;;;;;22.42;13.68;;;5.60;99.90;;;;;;5021802;28;20065;-70
2021/12/04 12:44:01;;;;;;;20.65;12.82;;;5.60;99.90;;;;;;4979945;28;20066;-70
2021/12/04 12:46:32;;;;;;;23.23;13.30;;;5.70;99.90;;;;;;4963144;28;20082;-69
2021/12/04 12:48:58;;;;;;;23.38;13.25;;;5.70;99.90;;;;;;4980346;28;20078;-68
2021/12/04 12:51:34;;;;;;;23.05;13.75;;;5.80;99.90;;;;;;4964041;28;20054;-69
2021/12/04 12:54:06;;;;;;;23.30;14.25;;;5.70;99.90;;;;;;4964379;28;20053;-70
2021/12/04 12:56:34;;;;;;;23.13;13.90;;;5.70;99.90;;;;;;4979182;28;20059;-70
2021/12/04 12:59:08;;;;;;;23.13;13.45;;;5.70;99.90;;;;;;4979172;28;20091;-69
2021/12/04 13:13:30;;;;;;;23.20;13.75;;;5.60;99.90;;;;;;4979519;28;20422;-69
2021/12/04 13:16:04;;;;;;;24.77;14.38;;;5.60;99.90;;;;;;4979143;28;20049;-70
2021/12/04 13:18:31;;;;;;;22.95;14.45;;;5.50;99.90;;;;;;4976327;28;20042;-69
2021/12/04 13:21:06;;;;;;;28.00;15.77;;;5.50;99.90;;;;;;4965795;28;20082;-70
2021/12/04 13:23:33;;;;;;;27.25;15.63;;;5.60;99.90;;;;;;4971364;28;20043;-71
2021/12/04 13:26:12;;;;;;;26.13;16.45;;;5.50;99.90;;;;;;4979484;28;20051;-71
2021/12/04 13:28:44;;;;;;;28.60;16.27;;;5.50;99.90;;;;;;4982193;28;20107;-70
2021/12/04 13:31:10;;;;;;;28.05;15.98;;;5.60;99.90;;;;;;4972509;28;20097;-70
2021/12/04 13:33:38;;;;;;;30.50;17.02;;;5.60;99.90;;;;;;4978482;28;20049;-71
2021/12/04 13:36:26;;;;;;;28.73;16.67;;;5.60;99.90;;;;;;4981349;28;20062;-70
2021/12/04 13:39:03;;;;;;;31.95;17.00;;;5.60;99.90;;;;;;4985430;28;20102;-70
2021/12/04 13:41:29;;;;;;;;;;;5.60;99.90;;;;;;4982673;28;20055;-70
2021/12/04 13:43:57;;;;;;;32.17;17.55;;;5.50;99.90;;;;;;4978346;28;19922;-71
2021/12/04 13:46:24;;;;;;;32.58;17.50;;;5.50;99.90;;;;;;4985780;28;20054;-70
2021/12/04 13:48:51;;;;;;;;;;;5.60;99.90;;;;;;4981872;28;20043;-71
2021/12/04 13:51:17;;;;;;;31.48;17.05;;;5.50;99.90;;;;;;4980621;28;19933;-71
2021/12/04 13:53:46;;;;;;;35.85;21.63;;;5.50;99.90;;;;;;4977088;28;20047;-70
2021/12/04 13:56:18;;;;;;;31.17;19.48;;;5.60;99.90;;;;;;4981900;28;20167;-71
2021/12/04 13:58:53;;;;;;;37.53;20.63;;;5.50;99.90;;;;;;4991816;28;20062;-71
2021/12/04 14:01:19;;;;;;;37.30;20.73;;;5.60;99.90;;;;;;5039107;28;20084;-71
2021/12/04 14:03:47;;;;;;;39.63;20.38;;;5.60;99.90;;;;;;5024388;28;20097;-69
2021/12/04 14:06:15;;;;;;;40.80;20.67;;;5.50;99.90;;;;;;5038757;28;20136;-70
2021/12/04 14:08:41;;;;;;;42.20;21.55;;;5.60;99.90;;;;;;5022459;28;20068;-71
2021/12/04 14:11:07;;;;;;;42.97;22.83;;;5.60;99.90;;;;;;5006200;28;20053;-59
2021/12/04 14:13:36;;;;;;;48.63;23.80;;;5.60;99.90;;;;;;5023941;28;20374;-67
2021/12/04 14:16:02;;;;;;;46.88;22.98;;;5.60;99.90;;;;;;5024495;28;20057;-64
2021/12/04 14:18:29;;;;;;;47.63;23.48;;;5.60;99.90;;;;;;5022976;28;20070;-66
2021/12/04 14:21:02;;;;;;;52.45;23.42;;;5.60;99.90;;;;;;5019426;28;20089;-66
2021/12/04 14:23:30;;;;;;;45.65;21.80;;;5.50;99.90;;;;;;5019019;28;20046;-60
2021/12/04 14:25:57;;;;;;;48.17;23.00;;;5.60;99.90;;;;;;5034546;28;20046;-65
2021/12/04 14:28:34;;;;;;;45.17;22.27;;;5.60;99.90;;;;;;5020702;28;20135;-64
2021/12/04 14:31:00;;;;;;;48.58;23.15;;;5.60;99.90;;;;;;5023943;28;20071;-65
2021/12/04 14:33:26;;;;;;;48.00;21.90;;;5.60;99.90;;;;;;5023279;28;20065;-64
2021/12/04 14:35:54;;;;;;;49.15;23.95;;;5.50;99.90;;;;;;5010665;28;20379;-60
2021/12/04 14:38:25;;;;;;;49.35;24.58;;;5.50;99.90;;;;;;5021286;28;20089;-63
2021/12/04 14:41:04;;;;;;;56.78;25.08;;;5.50;99.90;;;;;;5021943;28;20049;-63
2021/12/04 14:43:34;;;;;;;52.20;23.27;;;5.50;99.90;;;;;;5020327;28;20052;-63
2021/12/04 14:46:02;;;;;;;54.25;24.65;;;5.50;99.90;;;;;;5021599;28;20071;-63
2021/12/04 14:48:49;;;;;;;58.90;25.50;;;5.50;99.90;;;;;;5004452;28;20116;-64
2021/12/04 14:51:20;;;;;;;57.95;25.13;;;5.50;99.90;;;;;;5020914;28;20037;-59
2021/12/04 14:53:49;;;;;;;52.20;25.38;;;5.50;99.90;;;;;;5021958;28;20065;-63
2021/12/04 14:56:19;;;;;;;49.13;24.75;;;5.50;99.90;;;;;;5021201;28;20045;-61
2021/12/04 14:58:45;;;;;;;58.08;25.23;;;5.50;99.90;;;;;;5022662;28;20089;-61
2021/12/04 15:01:13;;;;;;;54.55;24.80;;;5.60;99.90;;;;;;5023261;28;20046;-58
2021/12/04 15:03:49;;;;;;;51.15;24.48;;;5.60;99.90;;;;;;5021878;28;20397;-64
2021/12/04 15:06:17;;;;;;;47.50;22.55;;;5.50;99.90;;;;;;5023613;28;20052;-65
2021/12/04 15:08:47;;;;;;;54.85;25.08;;;5.50;99.90;;;;;;5021642;28;20049;-64
2021/12/04 15:11:16;;;;;;;57.20;26.48;;;5.50;99.90;;;;;;5021346;28;20072;-63
2021/12/04 15:14:09;;;;;;;60.78;28.70;;;5.60;99.90;;;;;;5021541;28;20045;-64
2021/12/04 15:16:39;;;;;;;58.33;27.05;;;5.50;99.90;;;;;;5001841;28;20061;-65
2021/12/04 15:19:40;;;;;;;51.95;25.52;;;5.50;99.90;;;;;;5022505;28;20058;-62
2021/12/04 15:22:14;;;;;;;49.22;23.30;;;5.50;99.90;;;;;;5022758;28;20131;-65
2021/12/04 15:24:42;;;;;;;47.88;24.13;;;5.40;99.90;;;;;;5023075;28;20106;-62
2021/12/04 15:27:18;;;;;;;53.70;24.83;;;5.50;99.90;;;;;;5037770;28;20240;-64
2021/12/04 15:29:46;;;;;;;46.97;23.33;;;5.50;99.90;;;;;;5021419;28;20187;-63
2021/12/04 15:32:15;;;;;;;51.00;25.13;;;5.40;99.90;;;;;;5020562;28;20090;-63
2021/12/04 15:34:51;;;;;;;55.15;25.52;;;5.40;99.90;;;;;;5023123;28;20105;-63
2021/12/04 15:37:48;;;;;;;53.45;23.75;;;5.40;99.90;;;;;;5031991;28;20068;-63
2021/12/04 15:40:30;;;;;;;62.50;25.85;;;5.40;99.90;;;;;;5022143;28;20103;-63